createdAt,value
2016-06-09T05:20:33.376Z,18.21
2016-06-09T05:21:25.797Z,18.2
2016-06-09T05:22:26.207Z,18.26
2016-06-09T05:23:26.225Z,18.36
2016-06-09T05:24:26.260Z,18.35
2016-06-09T05:25:26.247Z,18.32
2016-06-09T05:26:26.438Z,18.35
2016-06-09T05:27:26.723Z,18.47
2016-06-09T05:28:26.273Z,18.39
2016-06-09T05:29:26.150Z,18.37
2016-06-09T05:30:26.341Z,18.5
2016-06-09T05:31:26.344Z,18.51
2016-06-09T05:32:26.800Z,18.5
2016-06-09T05:33:27.225Z,18.6
2016-06-09T05:34:26.869Z,18.57
2016-06-09T05:35:27.200Z,18.7
2016-06-09T05:36:25.907Z,18.73
2016-06-09T05:37:26.596Z,18.82
2016-06-09T05:38:26.381Z,18.87
2016-06-09T05:39:26.446Z,18.88
2016-06-09T05:40:26.122Z,18.85
2016-06-09T05:41:26.875Z,18.98
2016-06-09T05:42:40.709Z,18.99
2016-06-09T05:43:26.647Z,19.04
2016-06-09T05:44:26.446Z,18.98
2016-06-09T05:45:26.700Z,19.02
2016-06-09T05:46:26.467Z,19.16
2016-06-09T05:47:26.877Z,19.1
2016-06-09T05:48:26.568Z,19.13
2016-06-09T05:49:26.696Z,19.18
2016-06-09T05:50:27.683Z,19.11
2016-06-09T05:51:26.764Z,19.23
2016-06-09T05:52:26.517Z,19.19
2016-06-09T05:53:26.552Z,19.32
2016-06-09T05:54:26.555Z,19.33
2016-06-09T05:55:26.559Z,19.37
2016-06-09T05:56:26.765Z,19.41
2016-06-09T05:57:26.579Z,19.43
2016-06-09T05:58:26.646Z,19.44
2016-06-09T05:59:26.602Z,19.47
2016-06-09T06:00:26.871Z,19.46
2016-06-09T06:01:26.514Z,19.47
2016-06-09T06:02:26.674Z,19.58
2016-06-09T06:03:26.676Z,19.55
2016-06-09T06:04:27.852Z,19.51
2016-06-09T06:05:40.951Z,19.65
2016-06-09T06:07:26.704Z,19.62
2016-06-09T06:08:26.738Z,19.62
2016-06-09T06:09:26.726Z,19.66
2016-06-09T06:10:26.933Z,19.65
2016-06-09T06:12:27.001Z,19.73
2016-06-09T06:13:40.882Z,19.65
2016-06-09T06:14:26.617Z,19.68
2016-06-09T06:15:26.932Z,19.61
2016-06-09T06:16:26.998Z,19.59
2016-06-09T06:17:27.048Z,19.63
2016-06-09T06:18:26.847Z,19.65
2016-06-09T06:19:26.836Z,19.54
2016-06-09T06:20:27.495Z,19.56
2016-06-09T06:21:26.873Z,19.44
2016-06-09T06:22:41.270Z,19.46
2016-06-09T06:23:28.410Z,19.41
2016-06-09T06:24:27.179Z,19.44
2016-06-09T06:25:27.151Z,19.46
2016-06-09T06:26:27.122Z,19.46
2016-06-09T06:27:26.954Z,19.41
2016-06-09T06:28:26.972Z,19.41
2016-06-09T06:29:27.194Z,19.33
2016-06-09T06:30:27.167Z,19.37
2016-06-09T06:31:26.981Z,19.36
2016-06-09T06:32:26.984Z,19.36
2016-06-09T06:33:41.101Z,19.33
2016-06-09T06:34:27.241Z,19.48
2016-06-09T06:35:27.446Z,19.44
2016-06-09T06:36:27.216Z,19.41
2016-06-09T06:37:27.281Z,19.46
2016-06-09T06:38:27.050Z,19.44
2016-06-09T06:39:27.100Z,19.44
2016-06-09T06:40:27.072Z,19.47
2016-06-09T06:41:26.653Z,19.54
2016-06-09T06:42:27.140Z,19.54
2016-06-09T06:43:28.956Z,19.62
2016-06-09T06:44:27.163Z,19.66
2016-06-09T06:45:26.712Z,19.61
2016-06-09T06:46:27.199Z,19.66
2016-06-09T06:47:27.186Z,19.74
2016-06-09T06:48:27.175Z,19.69
2016-06-09T06:49:27.178Z,19.73
2016-06-09T06:50:27.306Z,19.84
2016-06-09T06:51:27.043Z,19.8
2016-06-09T06:52:27.248Z,19.91
2016-06-09T06:53:27.252Z,19.92
2016-06-09T06:54:27.427Z,19.95
2016-06-09T06:55:27.883Z,19.92
2016-06-09T06:56:27.902Z,19.92
2016-06-09T06:57:27.483Z,19.96
2016-06-09T06:58:27.486Z,20.06
2016-06-09T06:59:27.303Z,20.13
2016-06-09T07:00:27.321Z,20.16
2016-06-09T07:01:27.323Z,20.26
2016-06-09T07:02:27.342Z,20.24
2016-06-09T07:03:27.361Z,20.38
2016-06-09T07:04:27.349Z,20.33
2016-06-09T07:05:27.476Z,20.39
2016-06-09T07:06:27.417Z,20.41
2016-06-09T07:07:27.623Z,20.43
2016-06-09T07:08:27.642Z,20.51
2016-06-09T07:09:41.507Z,20.58
2016-06-09T07:10:27.882Z,20.5
2016-06-09T07:11:27.465Z,20.58
2016-06-09T07:12:27.685Z,20.67
2016-06-09T07:13:28.829Z,20.69
2016-06-09T07:14:27.707Z,20.61
2016-06-09T07:15:27.523Z,20.7
2016-06-09T07:16:27.572Z,20.82
2016-06-09T07:17:27.545Z,20.84
2016-06-09T07:18:27.531Z,20.84
2016-06-09T07:19:41.648Z,20.92
2016-06-09T07:20:27.820Z,20.99
2016-06-09T07:21:27.588Z,21.01
2016-06-09T07:22:27.810Z,21.03
2016-06-09T07:23:27.626Z,21.01
2016-06-09T07:24:27.629Z,20.98
2016-06-09T07:25:27.663Z,21.03
2016-06-09T07:26:27.636Z,21.1
2016-06-09T07:27:27.654Z,21.04
2016-06-09T07:28:27.892Z,20.94
2016-06-09T07:29:27.675Z,21.03
2016-06-09T07:30:27.679Z,21.03
2016-06-09T07:31:27.697Z,20.95
2016-06-09T07:32:27.716Z,20.91
2016-06-09T07:33:27.750Z,20.87
2016-06-09T07:34:27.752Z,20.77
2016-06-09T07:35:28.100Z,20.84
2016-06-09T07:36:28.166Z,20.79
2016-06-09T07:37:27.965Z,20.8
2016-06-09T07:38:27.797Z,20.79
2016-06-09T07:39:27.628Z,20.94
2016-06-09T07:40:28.068Z,20.92
2016-06-09T07:41:41.902Z,20.99
2016-06-09T07:42:27.840Z,21.03
2016-06-09T07:43:41.658Z,20.98
2016-06-09T07:44:28.252Z,21.13
2016-06-09T07:45:42.165Z,21.13
2016-06-09T07:46:27.900Z,21.16
2016-06-09T07:47:27.903Z,21.17
2016-06-09T07:48:28.468Z,21.25
2016-06-09T07:49:27.924Z,21.27
2016-06-09T07:50:28.193Z,21.43
2016-06-09T07:51:42.028Z,21.46
2016-06-09T07:52:28.372Z,21.47
2016-06-09T07:53:28.921Z,21.52
2016-06-09T07:54:28.408Z,21.49
2016-06-09T07:55:27.989Z,21.49
2016-06-09T07:56:28.024Z,21.52
2016-06-09T07:57:28.043Z,21.49
2016-06-09T07:58:28.249Z,21.47
2016-06-09T07:59:28.501Z,21.43
2016-06-09T08:00:28.271Z,21.46
2016-06-09T08:01:27.602Z,21.44
2016-06-09T08:02:27.636Z,21.44
2016-06-09T08:03:28.124Z,21.37
2016-06-09T08:04:28.127Z,21.4
2016-06-09T08:05:28.786Z,21.37
2016-06-09T08:06:28.384Z,21.25
2016-06-09T08:07:28.151Z,21.31
2016-06-09T08:08:28.186Z,21.24
2016-06-09T08:09:28.236Z,21.28
2016-06-09T08:10:28.207Z,21.27
2016-06-09T08:11:28.242Z,21.34
2016-06-09T08:12:28.433Z,21.29
2016-06-09T08:13:28.466Z,21.24
2016-06-09T08:14:28.283Z,21.25
2016-06-09T08:15:28.269Z,21.19
2016-06-09T08:16:28.273Z,21.21
2016-06-09T08:17:28.292Z,21.17
2016-06-09T08:18:28.310Z,21.12
2016-06-09T08:19:28.329Z,21.13
2016-06-09T08:20:29.364Z,21.17
2016-06-09T08:21:28.413Z,21.16
2016-06-09T08:22:28.354Z,21.16
2016-06-09T08:23:28.575Z,21.13
2016-06-09T08:24:28.626Z,21.03
2016-06-09T08:25:28.428Z,21.16
2016-06-09T08:26:28.442Z,21.16
2016-06-09T08:27:28.503Z,21.16
2016-06-09T08:28:28.580Z,21.28
2016-06-09T08:29:28.611Z,21.28
2016-06-09T08:30:28.671Z,21.32
2016-06-09T08:31:29.142Z,21.42
2016-06-09T08:32:29.129Z,21.58
2016-06-09T08:33:28.772Z,21.68
2016-06-09T08:34:28.790Z,21.74
2016-06-09T08:35:30.090Z,21.77
2016-06-09T08:36:28.833Z,21.88
2016-06-09T08:37:28.858Z,22
2016-06-09T08:38:28.866Z,22.15
2016-06-09T08:39:42.975Z,22.17
2016-06-09T08:40:28.647Z,22.2
2016-06-09T08:41:28.918Z,22.28
2016-06-09T08:42:28.971Z,22.36
2016-06-09T08:43:29.195Z,22.39
2016-06-09T08:44:29.371Z,22.4
2016-06-09T08:45:29.032Z,22.45
2016-06-09T08:46:29.036Z,22.46
2016-06-09T08:47:43.497Z,22.47
2016-06-09T08:48:31.419Z,22.49
2016-06-09T08:49:29.266Z,22.51
2016-06-09T08:50:29.083Z,22.49
2016-06-09T08:51:29.070Z,22.62
2016-06-09T08:52:29.073Z,22.62
2016-06-09T08:53:31.046Z,22.68
2016-06-09T08:54:29.113Z,22.72
2016-06-09T08:55:29.116Z,22.75
2016-06-09T08:56:29.182Z,22.8
2016-06-09T08:57:29.403Z,22.79
2016-06-09T08:58:29.172Z,22.8
2016-06-09T08:59:29.222Z,22.77
2016-06-09T09:00:29.052Z,22.83
2016-06-09T09:01:29.446Z,22.82
2016-06-09T09:02:29.262Z,22.82
2016-06-09T09:03:29.686Z,22.8
2016-06-09T09:04:29.471Z,22.85
2016-06-09T09:05:29.459Z,22.79
2016-06-09T09:06:29.493Z,22.85
2016-06-09T09:07:29.699Z,23.02
2016-06-09T09:08:29.906Z,22.97
2016-06-09T09:09:29.330Z,23.01
2016-06-09T09:10:29.552Z,23.02
2016-06-09T09:11:29.353Z,23.17
2016-06-09T09:12:28.902Z,23.19
2016-06-09T09:13:43.503Z,23.4
2016-06-09T09:14:29.675Z,23.42
2016-06-09T09:15:29.459Z,23.47
2016-06-09T09:16:29.461Z,23.68
2016-06-09T09:17:29.465Z,23.65
2016-06-09T09:18:29.718Z,23.66
2016-06-09T09:19:29.486Z,23.66
2016-06-09T09:20:30.068Z,23.66
2016-06-09T09:21:30.024Z,23.7
2016-06-09T09:22:29.527Z,23.69
2016-06-09T09:23:29.561Z,23.73
2016-06-09T09:24:29.564Z,23.65
2016-06-09T09:25:29.833Z,23.69
2016-06-09T09:26:29.617Z,23.58
2016-06-09T09:27:30.010Z,23.69
2016-06-09T09:28:29.499Z,23.57
2016-06-09T09:29:29.673Z,23.54
2016-06-09T09:30:29.676Z,23.57
2016-06-09T09:31:30.102Z,23.57
2016-06-09T09:32:29.885Z,23.53
2016-06-09T09:33:29.919Z,23.47
2016-06-09T09:34:29.923Z,23.57
2016-06-09T09:35:29.739Z,23.57
2016-06-09T09:36:29.960Z,23.54
2016-06-09T09:38:29.780Z,23.65
2016-06-09T09:39:29.797Z,23.6
2016-06-09T09:40:30.050Z,23.61
2016-06-09T09:41:29.850Z,23.54
2016-06-09T09:42:29.870Z,23.55
2016-06-09T09:45:29.879Z,23.73
2016-06-09T09:46:29.882Z,23.78
2016-06-09T09:47:30.166Z,23.83
2016-06-09T09:48:29.918Z,23.93
2016-06-09T09:49:29.922Z,23.98
2016-06-09T09:50:30.285Z,23.98
2016-06-09T09:51:29.976Z,23.91
2016-06-09T09:52:29.979Z,23.98
2016-06-09T09:53:30.012Z,23.87
2016-06-09T09:54:30.234Z,23.95
2016-06-09T09:55:30.066Z,23.98
2016-06-09T09:56:30.272Z,24.02
2016-06-09T09:57:30.056Z,23.98
2016-06-09T09:58:30.294Z,24.15
2016-06-09T09:59:30.093Z,24.21
2016-06-09T10:00:30.284Z,24.22
2016-06-09T10:01:30.162Z,24.27
2016-06-09T10:02:30.072Z,24.35
2016-06-09T10:03:30.168Z,24.39
2016-06-09T10:04:29.859Z,24.4
2016-06-09T10:05:30.971Z,24.39
2016-06-09T10:06:30.896Z,24.49
2016-06-09T10:07:30.462Z,24.46
2016-06-09T10:08:44.312Z,24.6
2016-06-09T10:09:44.721Z,24.47
2016-06-09T10:10:30.502Z,24.53
2016-06-09T10:11:30.271Z,24.57
2016-06-09T10:12:30.290Z,24.57
2016-06-09T10:13:30.324Z,24.77
2016-06-09T10:14:30.546Z,24.77
2016-06-09T10:15:30.768Z,24.73
2016-06-09T10:16:30.365Z,24.87
2016-06-09T10:17:30.383Z,24.98
2016-06-09T10:18:30.574Z,24.93
2016-06-09T10:19:30.405Z,25.09
2016-06-09T10:20:30.986Z,25.06
2016-06-09T10:21:30.959Z,25.18
2016-06-09T10:22:30.679Z,25.28
2016-06-09T10:23:30.715Z,25.21
2016-06-09T10:24:30.311Z,25.25
2016-06-09T10:25:30.548Z,25.32
2016-06-09T10:26:30.754Z,25.18
2016-06-09T10:27:30.758Z,25.3
2016-06-09T10:28:30.558Z,25.33
2016-06-09T10:29:30.576Z,25.24
2016-06-09T10:30:30.595Z,25.35
2016-06-09T10:31:30.583Z,25.33
2016-06-09T10:32:44.698Z,25.25
2016-06-09T10:33:30.682Z,25.3
2016-06-09T10:34:30.654Z,25.33
2016-06-09T10:35:30.532Z,25.45
2016-06-09T10:36:31.333Z,25.39
2016-06-09T10:37:30.694Z,25.5
2016-06-09T10:38:30.697Z,25.5
2016-06-09T10:39:30.731Z,25.47
2016-06-09T10:40:30.564Z,25.51
2016-06-09T10:41:30.754Z,25.5
2016-06-09T10:42:30.773Z,25.35
2016-06-09T10:43:30.369Z,25.38
2016-06-09T10:44:31.060Z,25.32
2016-06-09T10:45:31.110Z,25.38
2016-06-09T10:46:30.864Z,25.17
2016-06-09T10:47:30.881Z,25.2
2016-06-09T10:48:31.103Z,25.08
2016-06-09T10:49:31.123Z,25.02
2016-06-09T10:50:30.797Z,25.09
2016-06-09T10:51:30.535Z,25.09
2016-06-09T10:52:30.944Z,25.25
2016-06-09T10:53:30.947Z,25.2
2016-06-09T10:54:30.997Z,25.38
2016-06-09T10:55:30.984Z,25.43
2016-06-09T10:56:31.003Z,25.45
2016-06-09T10:57:31.022Z,25.51
2016-06-09T10:58:31.040Z,25.69
2016-06-09T10:59:31.043Z,25.7
2016-06-09T11:00:31.079Z,25.72
2016-06-09T11:01:31.143Z,25.67
2016-06-09T11:02:31.085Z,25.69
2016-06-09T11:03:31.134Z,25.79
2016-06-09T11:04:31.763Z,25.88
2016-06-09T11:05:31.156Z,25.88
2016-06-09T11:06:30.721Z,25.82
2016-06-09T11:07:31.178Z,25.65
2016-06-09T11:08:45.512Z,25.6
2016-06-09T11:09:30.746Z,25.46
2016-06-09T11:10:31.265Z,25.42
2016-06-09T11:11:31.268Z,25.25
2016-06-09T11:12:31.365Z,25.25
2016-06-09T11:13:31.336Z,25.17
2016-06-09T11:14:31.293Z,25.05
2016-06-09T11:15:31.374Z,25.25
2016-06-09T11:16:31.314Z,25.23
2016-06-09T11:17:31.348Z,25.46
2016-06-09T11:18:31.773Z,25.33
2016-06-09T11:19:31.387Z,25.47
2016-06-09T11:20:31.389Z,25.6
2016-06-09T11:21:31.486Z,25.55
2016-06-09T11:22:31.443Z,25.6
2016-06-09T11:23:31.633Z,25.7
2016-06-09T11:24:31.480Z,25.62
2016-06-09T11:25:31.467Z,25.58
2016-06-09T11:26:31.486Z,25.47
2016-06-09T11:27:31.504Z,25.33
2016-06-09T11:28:31.540Z,25.32
2016-06-09T11:29:31.526Z,25.21
2016-06-09T11:30:32.046Z,25.25
2016-06-09T11:31:31.563Z,25.03
2016-06-09T11:32:31.801Z,24.95
2016-06-09T11:33:31.852Z,24.88
2016-06-09T11:34:31.651Z,24.81
2016-06-09T11:35:31.638Z,24.83
2016-06-09T11:36:31.595Z,24.8
2016-06-09T11:37:32.270Z,24.8
2016-06-09T11:38:31.210Z,24.84
2016-06-09T11:39:31.698Z,24.83
2016-06-09T11:40:31.732Z,24.93
2016-06-09T11:41:31.986Z,24.91
2016-06-09T11:42:31.738Z,25.05
2016-06-09T11:43:31.773Z,25.13
2016-06-09T11:44:31.792Z,25.09
2016-06-09T11:45:31.795Z,25.05
2016-06-09T11:46:31.813Z,25.21
2016-06-09T11:47:31.895Z,25.23
2016-06-09T11:48:31.866Z,25.28
2016-06-09T11:49:32.056Z,25.3
2016-06-09T11:50:31.888Z,25.5
2016-06-09T11:51:32.438Z,25.51
2016-06-09T11:52:31.956Z,25.62
2016-06-09T11:53:31.928Z,25.73
2016-06-09T11:54:31.963Z,25.79
2016-06-09T11:55:32.184Z,25.87
2016-06-09T11:56:32.048Z,26.06
2016-06-09T11:57:31.987Z,26.07
2016-06-09T11:58:32.054Z,26.06
2016-06-09T11:59:32.400Z,26.18
2016-06-09T12:00:32.059Z,26.13
2016-06-09T12:01:32.063Z,26.18
2016-06-09T12:02:32.066Z,26.32
2016-06-09T12:03:32.350Z,26.36
2016-06-09T12:04:32.322Z,26.39
2016-06-09T12:05:45.874Z,26.36
2016-06-09T12:06:33.499Z,26.45
2016-06-09T12:07:32.143Z,26.36
2016-06-09T12:08:32.599Z,26.36
2016-06-09T12:09:32.196Z,26.48
2016-06-09T12:10:32.386Z,26.5
2016-06-09T12:11:32.234Z,26.52
2016-06-09T12:12:32.939Z,26.51
2016-06-09T12:13:32.286Z,26.55
2016-06-09T12:14:32.117Z,26.52
2016-06-09T12:15:32.277Z,26.51
2016-06-09T12:16:32.343Z,26.63
2016-06-09T12:18:32.583Z,26.51
2016-06-09T12:20:32.371Z,26.5
2016-06-09T12:21:33.233Z,26.45
2016-06-09T12:22:32.392Z,26.52
2016-06-09T12:23:32.598Z,26.51
2016-06-09T12:24:32.430Z,26.47
2016-06-09T12:25:32.464Z,26.48
2016-06-09T12:26:32.468Z,26.51
2016-06-09T12:27:46.566Z,26.51
2016-06-09T12:28:32.520Z,26.47
2016-06-09T12:29:32.508Z,26.52
2016-06-09T12:30:32.386Z,26.47
2016-06-09T12:31:32.545Z,26.48
2016-06-09T12:32:32.564Z,26.51
2016-06-09T12:33:32.582Z,26.52
2016-06-09T12:34:32.835Z,26.66
2016-06-09T12:35:32.854Z,26.57
2016-06-09T12:36:32.874Z,26.52
2016-06-09T12:37:32.658Z,26.4
2016-06-09T12:38:32.708Z,26.15
2016-06-09T12:39:32.694Z,26.26
2016-06-09T12:40:32.713Z,26.09
2016-06-09T12:41:32.732Z,26.05
2016-06-09T12:42:32.735Z,26.05
2016-06-09T12:43:32.973Z,25.98
2016-06-09T12:44:33.007Z,25.92
2016-06-09T12:45:32.791Z,25.79
2016-06-09T12:46:33.029Z,25.77
2016-06-09T12:47:33.032Z,25.65
2016-06-09T12:49:33.053Z,25.67
2016-06-09T12:50:32.604Z,25.7
2016-06-09T12:51:33.185Z,25.8
2016-06-09T12:53:33.331Z,25.94
2016-06-09T12:54:32.943Z,25.9
2016-06-09T12:55:32.994Z,26.09
2016-06-09T12:56:32.965Z,26.1
2016-06-09T12:57:33.188Z,26.1
2016-06-09T12:58:33.191Z,26.15
2016-06-09T12:59:33.037Z,26.18
2016-06-09T13:00:33.228Z,26.29
2016-06-09T13:01:33.262Z,26.33
2016-06-09T13:02:33.265Z,26.32
2016-06-09T13:03:33.081Z,26.3
2016-06-09T13:04:33.084Z,26.06
2016-06-09T13:05:33.119Z,26.18
2016-06-09T13:06:33.747Z,26.15
2016-06-09T13:07:33.375Z,26.06
2016-06-09T13:08:33.175Z,26.12
2016-06-09T13:09:33.380Z,26.07
2016-06-09T13:10:33.196Z,26.1
2016-06-09T13:11:33.090Z,26.1
2016-06-09T13:12:33.093Z,26.15
2016-06-09T13:13:33.284Z,26.1
2016-06-09T13:14:33.490Z,26.23
2016-06-09T13:15:33.119Z,26.15
2016-06-09T13:16:33.527Z,26.25
2016-06-09T13:17:33.546Z,26.21
2016-06-09T13:18:33.315Z,26.28
2016-06-09T13:19:33.553Z,26.23
2016-06-09T13:20:33.352Z,26.26
2016-06-09T13:21:33.683Z,26.3
2016-06-09T13:22:33.405Z,26.36
2016-06-09T13:23:33.439Z,26.3
2016-06-09T13:24:33.160Z,26.36
2016-06-09T13:25:33.899Z,26.44
2016-06-09T13:26:33.480Z,26.25
2016-06-09T13:27:33.483Z,26.3
2016-06-09T13:28:33.923Z,26.21
2016-06-09T13:29:33.365Z,26.23
2016-06-09T13:30:33.758Z,26.17
2016-06-09T13:31:33.542Z,26.21
2016-06-09T13:32:33.545Z,26.29
2016-06-09T13:33:47.661Z,26.26
2016-06-09T13:34:33.583Z,26.3
2016-06-09T13:35:33.602Z,26.39
2016-06-09T13:36:33.855Z,26.35
2016-06-09T13:37:33.639Z,26.48
2016-06-09T13:38:33.657Z,26.51
2016-06-09T13:39:48.226Z,26.57
2016-06-09T13:40:33.695Z,26.55
2016-06-09T13:41:33.698Z,26.5
2016-06-09T13:42:34.123Z,26.45
2016-06-09T13:43:33.922Z,26.37
2016-06-09T13:44:33.769Z,26.33
2016-06-09T13:45:33.757Z,26.23
2016-06-09T13:46:33.761Z,26.21
2016-06-09T13:47:33.685Z,26.2
2016-06-09T13:48:33.860Z,26.25
2016-06-09T13:49:34.051Z,26.18
2016-06-09T13:50:33.865Z,26.26
2016-06-09T13:51:34.650Z,26.17
2016-06-09T13:52:33.888Z,26.15
2016-06-09T13:53:33.891Z,26.12
2016-06-09T13:54:33.941Z,26.07
2016-06-09T13:55:33.913Z,26.1
2016-06-09T13:56:34.431Z,26.05
2016-06-09T13:57:33.466Z,25.94
2016-06-09T13:58:33.969Z,25.91
2016-06-09T13:59:33.972Z,25.88
2016-06-09T14:00:33.866Z,25.82
2016-06-09T14:01:34.290Z,25.79
2016-06-09T14:02:34.059Z,25.67
2016-06-09T14:03:34.265Z,25.69
2016-06-09T14:04:34.066Z,25.57
2016-06-09T14:05:34.131Z,25.57
2016-06-09T14:06:34.322Z,25.46
2016-06-09T14:07:48.249Z,25.39
2016-06-09T14:08:34.140Z,25.3
2016-06-09T14:09:33.690Z,25.28
2016-06-09T14:10:34.210Z,25.21
2016-06-09T14:11:34.431Z,25.21
2016-06-09T14:12:34.621Z,25.28
2016-06-09T14:13:34.218Z,25.17
2016-06-09T14:14:34.425Z,25.09
2016-06-09T14:16:34.493Z,24.9
2016-06-09T14:17:34.668Z,24.87
2016-06-09T14:18:34.374Z,24.84
2016-06-09T14:19:34.502Z,24.9
2016-06-09T14:20:34.318Z,24.91
2016-06-09T14:21:35.711Z,25
2016-06-09T14:22:34.747Z,25.03
2016-06-09T14:23:34.405Z,25.08
2016-06-09T14:24:48.864Z,25.06
2016-06-09T14:25:34.426Z,25.05
2016-06-09T14:26:34.429Z,25.2
2016-06-09T14:27:34.433Z,25.2
2016-06-09T14:28:34.452Z,25.33
2016-06-09T14:29:34.549Z,25.43
2016-06-09T14:30:34.677Z,25.52
2016-06-09T14:31:34.695Z,25.57
2016-06-09T14:32:34.745Z,25.55
2016-06-09T14:33:34.373Z,25.67
2016-06-09T14:34:34.564Z,25.65
2016-06-09T14:35:34.567Z,25.67
2016-06-09T14:36:49.338Z,25.62
2016-06-09T14:37:35.432Z,25.67
2016-06-09T14:38:48.671Z,25.67
2016-06-09T14:39:35.844Z,25.62
2016-06-09T14:40:34.645Z,25.69
2016-06-09T14:41:34.851Z,25.76
2016-06-09T14:42:34.667Z,25.79
2016-06-09T14:43:34.888Z,25.8
2016-06-09T14:44:34.797Z,25.82
2016-06-09T14:45:34.754Z,25.82
2016-06-09T14:46:34.976Z,25.88
2016-06-09T14:47:35.166Z,25.92
2016-06-09T14:48:34.779Z,25.9
2016-06-09T14:49:34.486Z,25.99
2016-06-09T14:51:35.178Z,26.06
2016-06-09T14:52:34.698Z,26.15
2016-06-09T14:53:35.247Z,26.21
2016-06-09T14:54:35.453Z,26.17
2016-06-09T14:55:34.878Z,26.32
2016-06-09T14:56:48.991Z,26.37
2016-06-09T14:57:34.947Z,26.36
2016-06-09T14:58:35.138Z,26.48
2016-06-09T14:59:34.938Z,26.55
2016-06-09T15:00:35.222Z,26.67
2016-06-09T15:01:35.287Z,26.76
2016-06-09T15:02:35.087Z,26.84
2016-06-09T15:03:35.028Z,26.85
2016-06-09T15:04:35.015Z,26.87
2016-06-09T15:05:35.050Z,26.84
2016-06-09T15:06:35.068Z,26.91
2016-06-09T15:07:35.260Z,26.97
2016-06-09T15:08:34.637Z,26.92
2016-06-09T15:09:34.656Z,26.95
2016-06-09T15:10:35.206Z,26.94
2016-06-09T15:11:35.178Z,27.03
2016-06-09T15:12:35.603Z,27.06
2016-06-09T15:13:35.184Z,27.03
2016-06-09T15:14:35.234Z,26.94
2016-06-09T15:15:35.424Z,26.99
2016-06-09T15:16:35.272Z,26.91
2016-06-09T15:17:35.275Z,26.95
2016-06-09T15:18:35.277Z,27.04
2016-06-09T15:19:35.358Z,27.06
2016-06-09T15:20:35.361Z,26.92
2016-06-09T15:21:35.348Z,27
2016-06-09T15:22:35.618Z,26.88
2016-06-09T15:23:35.340Z,26.97
2016-06-09T15:24:35.374Z,26.87
2016-06-09T15:25:35.392Z,26.92
2016-06-09T15:26:35.849Z,26.76
2016-06-09T15:27:35.664Z,26.65
2016-06-09T15:28:35.417Z,26.63
2016-06-09T15:29:35.858Z,26.45
2016-06-09T15:30:35.673Z,26.51
2016-06-09T15:31:35.677Z,26.36
2016-06-09T15:32:35.726Z,26.36
2016-06-09T15:33:35.527Z,26.43
2016-06-09T15:34:35.560Z,26.4
2016-06-09T15:35:35.548Z,26.29
2016-06-09T15:36:35.551Z,26.29
2016-06-09T15:37:36.414Z,26.13
2016-06-09T15:38:35.636Z,26.21
2016-06-09T15:39:35.608Z,26.15
2016-06-09T15:40:35.689Z,26.15
2016-06-09T15:41:35.645Z,26.18
2016-06-09T15:42:35.663Z,26.25
2016-06-09T15:43:35.682Z,26.29
2016-06-09T15:44:35.919Z,26.29
2016-06-09T15:45:35.735Z,26.3
2016-06-09T15:46:35.989Z,26.3
2016-06-09T15:47:36.211Z,26.28
2016-06-09T15:48:35.978Z,26.15
2016-06-09T15:49:35.825Z,26.28
2016-06-09T15:50:35.829Z,26.18
2016-06-09T15:51:35.831Z,26.15
2016-06-09T15:52:35.851Z,26.1
2016-06-09T15:53:36.057Z,26.1
2016-06-09T15:54:35.857Z,26.06
2016-06-09T15:55:35.907Z,25.92
2016-06-09T15:56:50.191Z,25.83
2016-06-09T15:57:35.975Z,25.79
2016-06-09T15:58:35.931Z,25.8
2016-06-09T15:59:36.106Z,25.69
2016-06-09T16:00:35.969Z,25.75
2016-06-09T16:01:36.004Z,25.54
2016-06-09T16:02:35.991Z,25.54
2016-06-09T16:03:36.009Z,25.46
2016-06-09T16:04:36.856Z,25.3
2016-06-09T16:05:36.046Z,25.25
2016-06-09T16:06:36.097Z,25.39
2016-06-09T16:07:36.803Z,25.23
2016-06-09T16:08:36.134Z,25.27
2016-06-09T16:09:50.184Z,25.28
2016-06-09T16:10:36.140Z,25.28
2016-06-09T16:11:36.346Z,25.28
2016-06-09T16:12:37.115Z,25.35
2016-06-09T16:13:36.197Z,25.21
2016-06-09T16:14:36.433Z,25.32
2016-06-09T16:15:36.203Z,25.3
2016-06-09T16:16:50.518Z,25.18
2016-06-09T16:17:36.239Z,25.24
2016-06-09T16:18:36.274Z,25.2
2016-06-09T16:19:36.511Z,25.15
2016-06-09T16:20:36.718Z,25.1
2016-06-09T16:22:37.005Z,25.06
2016-06-09T16:24:36.558Z,24.87
2016-06-09T16:25:36.608Z,24.88
2016-06-09T16:26:36.798Z,24.76
2016-06-09T16:27:50.692Z,24.77
2016-06-09T16:28:36.398Z,24.78
2016-06-09T16:29:36.402Z,24.73
2016-06-09T16:30:36.905Z,24.68
2016-06-09T16:31:36.314Z,24.68
2016-06-09T16:32:36.911Z,24.67
2016-06-09T16:33:36.539Z,24.68
2016-06-09T16:35:36.530Z,24.65
2016-06-09T16:36:36.939Z,24.57
2016-06-09T16:37:36.692Z,24.57
2016-06-09T16:38:36.757Z,24.58
2016-06-09T16:39:36.574Z,24.55
2016-06-09T16:40:36.638Z,24.53
2016-06-09T16:41:36.594Z,24.5
2016-06-09T16:42:36.817Z,24.42
2016-06-09T16:43:36.617Z,24.42
2016-06-09T16:44:36.182Z,24.3
2016-06-09T16:45:36.669Z,24.25
2016-06-09T16:46:36.673Z,24.21
2016-06-09T16:47:36.707Z,24.09
2016-06-09T16:48:50.788Z,24.12
2016-06-09T16:49:36.916Z,23.97
2016-06-09T16:50:36.951Z,24
2016-06-09T16:51:36.750Z,23.97
2016-06-09T16:52:37.160Z,23.93
2016-06-09T16:53:36.789Z,23.9
2016-06-09T16:54:36.869Z,23.93
2016-06-09T16:55:36.810Z,23.8
2016-06-09T16:56:36.828Z,23.72
2016-06-09T16:57:37.285Z,23.65
2016-06-09T16:58:36.866Z,23.65
2016-06-09T16:59:37.071Z,23.66
2016-06-09T17:00:36.903Z,23.61
2016-06-09T17:01:37.110Z,23.61
2016-06-09T17:02:36.925Z,23.58
2016-06-09T17:03:36.928Z,23.51
2016-06-09T17:04:37.369Z,23.57
2016-06-09T17:05:36.951Z,23.55
2016-06-09T17:06:36.968Z,23.53
2016-06-09T17:07:38.207Z,23.46
2016-06-09T17:08:36.537Z,23.42
2016-06-09T17:09:37.010Z,23.46
2016-06-09T17:10:37.044Z,23.39
2016-06-09T17:11:51.311Z,23.32
2016-06-09T17:12:37.284Z,23.36
2016-06-09T17:13:51.146Z,23.38
2016-06-09T17:14:37.087Z,23.36
2016-06-09T17:15:37.121Z,23.39
2016-06-09T17:16:37.327Z,23.28
2016-06-09T17:17:37.393Z,23.27
2016-06-09T17:18:37.553Z,23.28
2016-06-09T17:19:37.494Z,23.23
2016-06-09T17:20:37.793Z,23.28
2016-06-09T17:21:51.328Z,23.31
2016-06-09T17:22:37.581Z,23.27
2016-06-09T17:23:38.286Z,23.31
2016-06-09T17:24:37.259Z,23.27
2016-06-09T17:25:37.401Z,23.28
2016-06-09T17:26:37.452Z,23.25
2016-06-09T17:27:37.282Z,23.17
2016-06-09T17:28:37.271Z,23.19
2016-06-09T17:29:37.321Z,23.2
2016-06-09T17:30:37.542Z,23.17
2016-06-09T17:31:37.322Z,23.13
2016-06-09T17:32:37.617Z,23.1
2016-06-09T17:33:37.646Z,23.16
2016-06-09T17:34:37.785Z,23.05
2016-06-09T17:35:37.346Z,22.97
2016-06-09T17:36:37.601Z,23.01
2016-06-09T17:37:51.714Z,22.91
2016-06-09T17:38:37.529Z,22.91
2016-06-09T17:39:37.531Z,23.02
2016-06-09T17:40:37.753Z,22.98
2016-06-09T17:41:37.752Z,22.92
2016-06-09T17:42:37.791Z,22.98
2016-06-09T17:43:37.317Z,22.98
2016-06-09T17:44:37.809Z,22.95
2016-06-09T17:45:38.053Z,22.95
2016-06-09T17:46:38.435Z,23
2016-06-09T17:47:37.877Z,22.97
2016-06-09T17:48:37.851Z,22.97
2016-06-09T17:49:37.887Z,23.05
2016-06-09T17:50:37.892Z,23.13
2016-06-09T17:51:37.756Z,23.12
2016-06-09T17:52:38.072Z,23.07
2016-06-09T17:53:38.468Z,23.17
2016-06-09T17:54:38.189Z,23.22
2016-06-09T17:55:38.006Z,23.16
2016-06-09T17:56:38.634Z,23.17
2016-06-09T17:57:37.997Z,23.07
2016-06-09T17:58:38.079Z,23.05
2016-06-09T17:59:38.035Z,23.01
2016-06-09T18:00:38.118Z,23.02
2016-06-09T18:01:38.386Z,23.02
2016-06-09T18:02:38.091Z,23.01
2016-06-09T18:03:38.111Z,22.88
2016-06-09T18:04:38.130Z,22.88
2016-06-09T18:05:38.148Z,22.79
2016-06-09T18:06:38.120Z,22.82
2016-06-09T18:07:38.640Z,22.73
2016-06-09T18:08:38.782Z,22.64
2016-06-09T18:09:38.363Z,22.64
2016-06-09T18:10:38.163Z,22.6
2016-06-09T18:11:38.636Z,22.6
2016-06-09T18:12:38.232Z,22.55
2016-06-09T18:13:38.439Z,22.55
2016-06-09T18:14:38.254Z,22.45
2016-06-09T18:15:52.538Z,22.4
2016-06-09T18:16:38.370Z,22.31
2016-06-09T18:17:38.388Z,22.35
